Model, Colorado
Current Conditions -  °F | °C
As of 10:54 PM on Saturday 25 Oct 2014 (Local Time) from KTAD Reporting Station
Clear Clear  
Wind Chill: 56°   Ceiling: Unl
Heat Index: 56°   Visibility: 10mi
Dew Point: 26°   Wind: 16mph
Humidity: 32%   Direction: 250°WSW
Pressure: 30.07"   Gusts: NA
Location:  37.37°N, 104.25°W
Report Text: KTAD 260454Z AUTO 25014KT 10SM CLR 13/M03 A3007 RMK AO2 SLP111 T01331033
Loading
Personal Weather Stations






























Interactive Weather Map
Tropical Storm Tracking
New forecast layout! Learn more

10-Day Weather Forecast

Advertisements
Track Severe Weather on mobile